Time;durP1;ratioP1;P1;durP2;ratioP2;P2;SDS_P1;SDS_P2;PMS_P1;PMS_P2;Temp;Humidity;BMP_temperature;BMP_pressure;BME280_temperature;BME280_humidity;BME280_pressure;Samples;Min_cycle;Max_cycle;Signal;HPM_P1;HPM_P2
2023/05/26 00:01:46;;;;;;;7.47;4.10;;;;;;;14.35;70.19;98751.94;5071273;28;20586;-80
2023/05/26 00:04:16;;;;;;;6.57;4.13;;;;;;;14.42;69.86;98755.81;5071155;28;20207;-80
2023/05/26 00:06:43;;;;;;;6.80;3.97;;;;;;;14.41;69.86;98755.94;5071227;28;20250;-80
2023/05/26 00:09:10;;;;;;;5.70;3.80;;;;;;;14.36;69.97;98758.09;5070296;28;20218;-80
2023/05/26 00:11:36;;;;;;;5.53;3.87;;;;;;;14.43;69.66;98759.34;5071327;28;20211;-80
2023/05/26 00:14:03;;;;;;;7.13;4.40;;;;;;;14.40;69.79;98754.25;5071325;28;20203;-80
2023/05/26 00:16:31;;;;;;;7.50;4.33;;;;;;;14.43;69.60;98759.34;5071013;28;20211;-80
2023/05/26 00:18:57;;;;;;;6.37;4.10;;;;;;;14.44;69.77;98761.03;5070933;28;20203;-80
2023/05/26 00:21:23;;;;;;;8.83;4.53;;;;;;;14.47;69.66;98760.78;5070310;28;20218;-80
2023/05/26 00:23:50;;;;;;;6.23;4.13;;;;;;;14.37;69.92;98754.47;5071056;28;20212;-80
2023/05/26 00:26:16;;;;;;;6.10;4.30;;;;;;;14.32;70.12;98751.31;5071116;28;20556;-80
2023/05/26 00:28:43;;;;;;;5.53;3.83;;;;;;;14.32;70.26;98753.97;5070978;28;20246;-80
2023/05/26 00:31:10;;;;;;;6.13;3.87;;;;;;;14.22;70.74;98755.59;5070333;28;20210;-80
2023/05/26 00:33:38;;;;;;;7.03;4.03;;;;;;;14.20;71.01;98758.41;5070999;28;20218;-80
2023/05/26 00:36:04;;;;;;;6.30;4.30;;;;;;;14.16;71.15;98758.69;5070782;28;20207;-80
2023/05/26 00:38:31;;;;;;;9.30;3.97;;;;;;;14.21;71.23;98760.09;5070930;28;20235;-80
2023/05/26 00:40:57;;;;;;;5.53;4.00;;;;;;;14.16;71.30;98766.66;5069879;28;20204;-80
2023/05/26 00:43:24;;;;;;;4.47;3.57;;;;;;;14.15;71.72;98764.97;5070970;28;20219;-80
2023/05/26 00:45:50;;;;;;;6.70;4.10;;;;;;;14.18;71.69;98759.44;5073527;28;20230;-80
2023/05/26 00:48:17;;;;;;;5.43;3.73;;;;;;;14.13;71.52;98770.38;5074748;28;20662;-80
2023/05/26 00:50:45;;;;;;;7.33;4.33;;;;;;;14.13;71.70;98764.25;5073829;28;20213;-80
2023/05/26 00:53:12;;;;;;;7.23;4.37;;;;;;;14.15;71.74;98764.97;5074769;28;20206;-80
2023/05/26 00:55:39;;;;;;;6.63;4.10;;;;;;;14.17;71.42;98763.06;5075051;28;20288;-80
2023/05/26 00:58:06;;;;;;;7.63;4.37;;;;;;;14.09;72.11;98770.72;5074281;28;20317;-80
2023/05/26 01:00:33;;;;;;;5.57;4.17;;;;;;;14.09;72.01;98770.72;5071059;28;20577;-80
2023/05/26 01:02:59;;;;;;;9.50;4.37;;;;;;;14.14;72.22;98773.91;5071568;28;20211;-80
2023/05/26 01:05:26;;;;;;;7.90;4.50;;;;;;;14.18;72.11;98770.06;5071328;28;20284;-80
2023/05/26 01:07:54;;;;;;;6.47;4.03;;;;;;;14.18;71.89;98770.06;5072061;28;20230;-80
2023/05/26 01:10:21;;;;;;;7.07;4.23;;;;;;;14.22;71.91;98767.09;5073697;28;20219;-80
2023/05/26 01:12:54;;;;;;;6.03;4.00;;;;;;;14.22;72.15;98766.25;5074407;28;20211;-80
2023/05/26 01:15:26;;;;;;;5.87;3.90;;;;;;;14.22;72.31;98766.25;5074375;28;20285;-80
2023/05/26 01:17:58;;;;;;;4.97;3.60;;;;;;;14.29;72.21;98768.34;5074108;28;20235;-79
2023/05/26 01:20:29;;;;;;;5.93;4.40;;;;;;;14.32;72.21;98768.13;5073249;28;20214;-80
2023/05/26 01:23:33;;;;;;;6.30;4.23;;;;;;;14.35;72.26;98761.75;5074336;28;20594;-79
2023/05/26 01:26:21;;;;;;;6.33;4.20;;;;;;;14.42;71.87;98765.63;5073976;28;20214;-80
2023/05/26 01:28:52;;;;;;;7.53;4.63;;;;;;;14.45;71.75;98768.03;5073598;28;20219;-80
2023/05/26 01:31:19;;;;;;;7.83;5.10;;;;;;;14.51;71.54;98778.22;5073466;28;20199;-79
2023/05/26 01:33:45;;;;;;;6.90;4.73;;;;;;;14.58;70.82;98758.19;5074262;28;20213;-80
2023/05/26 01:36:12;;;;;;;6.40;4.60;;;;;;;14.52;71.53;98769.28;5073591;28;20214;-80
2023/05/26 01:38:39;;;;;;;6.40;4.60;;;;;;;14.52;71.05;98763.97;5073454;28;20228;-80
2023/05/26 01:41:13;;;;;;;5.30;4.77;;;;;;;14.54;71.22;98764.72;5073346;28;20216;-80
2023/05/26 01:43:44;;;;;;;8.30;4.80;;;;;;;14.50;71.20;98765.91;5073833;28;20219;-80
2023/05/26 01:46:22;;;;;;;8.33;5.10;;;;;;;14.57;70.76;98759.16;5073752;28;20215;-80
2023/05/26 01:48:50;;;;;;;7.10;4.17;;;;;;;14.58;70.31;98758.19;5073490;28;20697;-80
2023/05/26 01:51:17;;;;;;;6.83;4.60;;;;;;;14.53;70.88;98763.00;5072670;28;20298;-80
2023/05/26 01:53:48;;;;;;;8.70;4.67;;;;;;;14.61;70.58;98756.13;5073571;28;20265;-79
2023/05/26 01:56:15;;;;;;;6.77;4.47;;;;;;;14.61;70.26;98763.28;5072631;28;20219;-79
2023/05/26 01:58:45;;;;;;;6.80;4.93;;;;;;;14.45;70.85;98762.72;5073280;28;20600;-80
2023/05/26 02:01:13;;;;;;;6.43;4.60;;;;;;;14.44;70.94;98763.69;5072878;28;20214;-80
2023/05/26 02:03:41;;;;;;;6.17;4.60;;;;;;;14.43;71.54;98769.97;5073430;28;20222;-80
2023/05/26 02:06:08;;;;;;;8.47;4.73;;;;;;;14.31;71.92;98770.91;5073416;28;20214;-80
2023/05/26 02:08:35;;;;;;;8.73;5.03;;;;;;;14.30;71.93;98766.53;5073069;28;20239;-80
2023/05/26 02:11:02;;;;;;;6.30;4.57;;;;;;;14.31;71.83;98762.91;5072299;28;20696;-80
2023/05/26 02:13:28;;;;;;;5.20;4.43;;;;;;;14.19;72.31;98772.63;5073245;28;20211;-80
2023/05/26 02:15:55;;;;;;;6.63;4.63;;;;;;;14.07;73.22;98775.31;5073119;28;20215;-80
2023/05/26 02:18:24;;;;;;;7.47;4.80;;;;;;;14.06;73.84;98776.28;5072887;28;20654;-80
2023/05/26 02:20:51;;;;;;;7.83;5.10;;;;;;;14.09;74.00;98776.03;5072358;28;20259;-80
2023/05/26 02:23:17;;;;;;;7.73;4.60;;;;;;;14.06;73.48;98778.94;5072893;28;20214;-80
2023/05/26 02:25:44;;;;;;;7.77;5.20;;;;;;;13.94;74.01;98778.00;5073157;28;20293;-80
2023/05/26 02:28:10;;;;;;;6.33;4.60;;;;;;;13.95;74.21;98779.72;5073067;28;20242;-80
2023/05/26 02:30:37;;;;;;;6.97;4.87;;;;;;;13.82;75.19;98775.41;5072130;28;20208;-80
2023/05/26 02:33:05;;;;;;;7.43;4.60;;;;;;;13.76;75.50;98778.50;5072681;28;20207;-80
2023/05/26 02:35:33;;;;;;;9.57;4.77;;;;;;;13.67;76.14;98790.63;5072737;28;20207;-80
2023/05/26 02:38:00;;;;;;;7.23;5.10;;;;;;;13.64;76.97;98790.00;5072591;28;20236;-80
2023/05/26 02:40:27;;;;;;;8.53;5.33;;;;;;;13.67;76.49;98785.31;5071859;28;20219;-80
2023/05/26 02:42:53;;;;;;;8.73;5.20;;;;;;;13.62;76.65;98786.63;5072532;28;20211;-80
2023/05/26 02:45:20;;;;;;;8.10;5.03;;;;;;;13.58;76.68;98791.28;5072447;28;20214;-80
2023/05/26 02:47:46;;;;;;;7.60;4.97;;;;;;;13.56;76.54;98798.50;5072590;28;20227;-80
2023/05/26 02:50:13;;;;;;;7.67;4.83;;;;;;;13.53;76.84;98788.13;5071608;28;20218;-80
2023/05/26 02:52:41;;;;;;;8.17;4.93;;;;;;;13.53;76.51;98787.25;5072483;28;20305;-80
2023/05/26 02:55:11;;;;;;;7.40;4.83;;;;;;;13.51;76.65;98783.88;5072676;28;20246;-80
2023/05/26 02:57:38;;;;;;;9.20;4.90;;;;;;;13.52;77.08;98782.91;5072963;28;20234;-80
2023/05/26 03:00:07;;;;;;;7.77;5.10;;;;;;;13.50;77.62;98780.34;5071818;28;20222;-80
2023/05/26 03:02:33;;;;;;;7.23;5.07;;;;;;;13.43;77.80;98791.50;5072208;28;20685;-79
2023/05/26 03:05:00;;;;;;;6.77;4.97;;;;;;;13.34;78.99;98786.84;5072181;28;20206;-80
2023/05/26 03:07:26;;;;;;;7.67;5.10;;;;;;;13.27;79.74;98804.16;5071741;28;20238;-80
2023/05/26 03:09:54;;;;;;;5.23;4.67;;;;;;;13.26;80.29;98797.16;5071109;28;20211;-80
2023/05/26 03:12:20;;;;;;;10.40;5.47;;;;;;;13.18;80.64;98796.81;5072043;28;20219;-80
2023/05/26 03:14:47;;;;;;;7.97;5.47;;;;;;;13.14;81.59;98790.03;5072115;28;20548;-80
2023/05/26 03:17:13;;;;;;;7.67;5.13;;;;;;;13.08;82.12;98793.13;5071931;28;20240;-79
2023/05/26 03:19:40;;;;;;;7.80;5.40;;;;;;;13.02;82.14;98796.19;5071197;28;20238;-79
2023/05/26 03:22:06;;;;;;;9.63;5.50;;;;;;;12.97;82.75;98793.00;5071944;28;20204;-79
2023/05/26 03:24:33;;;;;;;7.73;5.40;;;;;;;12.98;82.96;98794.69;5071865;28;20681;-79
2023/05/26 03:27:01;;;;;;;14.40;7.13;;;;;;;13.07;82.79;98796.75;5087100;22;20716;-77
2023/05/26 03:29:29;;;;;;;6.93;5.33;;;;;;;13.02;82.60;98790.88;5070601;28;20773;-74
2023/05/26 03:31:56;;;;;;;8.60;4.57;;;;;;;12.99;82.64;98791.94;5071905;28;20210;-75
2023/05/26 03:34:23;;;;;;;7.10;4.87;;;;;;;13.00;82.99;98790.13;5071463;28;20227;-74
2023/05/26 03:36:52;;;;;;;8.73;5.47;;;;;;;13.14;81.72;98790.03;5071550;28;20211;-74
2023/05/26 03:39:19;;;;;;;7.60;5.60;;;;;;;13.12;81.85;98791.94;5070901;28;20227;-75
2023/05/26 03:41:45;;;;;;;8.30;5.50;;;;;;;13.11;81.49;98790.25;5071868;28;20207;-74
2023/05/26 03:44:18;;;;;;;7.63;5.10;;;;;;;13.07;82.25;98794.91;5071551;28;20214;-75
2023/05/26 03:46:45;;;;;;;7.70;5.50;;;;;;;13.07;82.33;98794.91;5071588;28;20302;-74
2023/05/26 03:49:11;;;;;;;7.67;5.23;;;;;;;13.16;81.72;98794.31;5070534;28;20210;-74
2023/05/26 03:51:38;;;;;;;7.27;5.77;;;;;;;13.18;81.67;98791.50;5071257;28;20700;-74
2023/05/26 03:54:04;;;;;;;8.67;5.20;;;;;;;13.20;81.10;98785.16;5071198;28;20210;-75
2023/05/26 03:56:32;;;;;;;9.33;5.50;;;;;;;13.15;81.33;98786.44;5071197;28;20678;-75
2023/05/26 03:58:58;;;;;;;7.10;5.57;;;;;;;13.14;81.76;98793.53;5071350;28;20318;-75
2023/05/26 04:01:26;;;;;;;8.13;5.13;;;;;;;13.19;80.82;98796.72;5070664;28;20210;-75
2023/05/26 04:03:53;;;;;;;9.77;5.70;;;;;;;13.24;80.87;98791.09;5071112;28;20214;-76
2023/05/26 04:06:19;;;;;;;10.57;5.40;;;;;;;13.23;81.10;98789.41;5071057;28;20695;-75
2023/05/26 04:08:47;;;;;;;7.87;5.63;;;;;;;13.30;81.11;98798.63;5070967;28;20231;-75
2023/05/26 04:11:13;;;;;;;7.33;5.27;;;;;;;13.35;80.62;98789.41;5070383;28;20704;-75
2023/05/26 04:13:41;;;;;;;9.57;5.77;;;;;;;13.46;79.24;98786.81;5071085;28;20685;-77
2023/05/26 04:16:08;;;;;;;9.80;5.80;;;;;;;13.48;78.85;98784.06;5071212;28;20210;-75
2023/05/26 04:18:36;;;;;;;8.23;6.00;;;;;;;13.52;78.45;98785.56;5070891;28;20238;-75
2023/05/26 04:21:03;;;;;;;9.17;5.80;;;;;;;13.53;78.36;98788.13;5076279;28;20218;-75
2023/05/26 04:23:30;;;;;;;10.67;5.83;;;;;;;13.62;78.02;98791.94;5077827;28;20245;-74
2023/05/26 04:25:56;;;;;;;7.03;5.47;;;;;;;13.57;78.14;98789.56;5077780;28;20206;-74
2023/05/26 04:28:24;;;;;;;8.57;5.87;;;;;;;13.70;77.63;98789.56;5077504;28;20290;-74
2023/05/26 04:30:50;;;;;;;10.37;5.87;;;;;;;13.71;77.23;98780.63;5076911;28;20210;-74
2023/05/26 04:33:17;;;;;;;10.97;5.73;;;;;;;13.65;77.67;98789.03;5077485;28;20203;-75
2023/05/26 04:35:46;;;;;;;7.17;5.90;;;;;;;13.70;77.78;98789.56;5077381;28;20296;-74
2023/05/26 04:38:13;;;;;;;8.30;5.27;;;;;;;13.78;77.08;98787.19;5077521;28;20231;-74
2023/05/26 04:40:39;;;;;;;10.80;5.97;;;;;;;13.79;77.08;98791.56;5077029;28;20368;-74
2023/05/26 04:43:06;;;;;;;9.73;5.80;;;;;;;13.81;77.54;98797.63;5077655;28;20206;-75
2023/05/26 04:45:35;;;;;;;10.70;6.50;;;;;;;13.79;77.49;98795.06;5077575;28;20210;-76
2023/05/26 04:48:02;;;;;;;10.57;6.20;;;;;;;13.86;77.31;98800.78;5077443;28;20605;-76
2023/05/26 04:50:32;;;;;;;5.83;4.87;;;;;;;13.95;77.14;98795.69;5076779;28;20257;-75
2023/05/26 04:53:00;;;;;;;7.53;5.53;;;;;;;14.03;77.15;98792.44;5078025;28;20287;-75
2023/05/26 04:55:26;;;;;;;7.50;5.40;;;;;;;14.17;77.04;98784.34;5077314;28;20218;-75
2023/05/26 04:57:53;;;;;;;8.50;5.60;;;;;;;14.18;76.93;98786.03;5077196;28;20234;-75
2023/05/26 05:00:21;;;;;;;9.53;5.77;;;;;;;14.25;76.08;98777.50;5076198;28;20241;-75
2023/05/26 05:02:47;;;;;;;7.80;6.20;;;;;;;14.40;74.72;98780.84;5077312;28;20211;-75
2023/05/26 05:05:14;;;;;;;12.47;6.37;;;;;;;14.44;74.41;98777.84;5077314;28;20234;-74
2023/05/26 05:07:40;;;;;;;9.87;5.80;;;;;;;14.52;73.93;98771.94;5077292;28;20705;-75
2023/05/26 05:10:09;;;;;;;8.50;5.77;;;;;;;14.59;73.51;98775.84;5076768;28;20207;-76
2023/05/26 05:12:36;;;;;;;8.17;5.73;;;;;;;14.83;72.95;98773.97;5077595;28;20215;-75
2023/05/26 05:15:02;;;;;;;10.23;6.37;;;;;;;15.36;71.50;98773.41;5077492;28;20214;-76
2023/05/26 05:17:29;;;;;;;8.80;5.60;;;;;;;15.77;68.97;98768.31;5077042;28;20239;-76
2023/05/26 05:19:55;;;;;;;8.77;5.57;;;;;;;16.28;66.21;98757.75;5076559;28;20232;-76
2023/05/26 05:22:21;;;;;;;9.40;6.00;;;;;;;16.73;64.85;98759.31;5077349;28;20203;-76
2023/05/26 05:24:48;;;;;;;7.73;5.73;;;;;;;17.02;63.71;98751.50;5077132;28;20676;-75
2023/05/26 05:27:16;;;;;;;8.77;6.30;;;;;;;17.33;61.45;98745.22;5077075;28;20243;-76
2023/05/26 05:29:42;;;;;;;8.93;5.97;;;;;;;17.62;60.71;98741.72;5076412;28;20208;-75
2023/05/26 05:32:09;;;;;;;8.13;6.13;;;;;;;17.75;58.37;98726.28;5074539;28;20218;-76
2023/05/26 05:34:35;;;;;;;8.77;6.33;;;;;;;17.76;58.23;98725.31;5073747;28;20610;-76
2023/05/26 05:37:02;;;;;;;11.23;5.80;;;;;;;17.98;57.87;98729.59;5073839;28;20203;-77
2023/05/26 05:39:28;;;;;;;7.37;5.50;;;;;;;18.28;57.27;98735.69;5072723;28;20231;-78
2023/05/26 05:41:55;;;;;;;10.07;5.83;;;;;;;18.49;56.51;98724.88;5073570;28;20677;-76
2023/05/26 05:44:23;;;;;;;8.77;5.97;;;;;;;18.64;56.40;98732.34;5073504;28;20222;-77
2023/05/26 05:46:49;;;;;;;8.67;6.67;;;;;;;18.75;56.27;98731.34;5073669;28;20203;-76
2023/05/26 05:49:16;;;;;;;10.17;5.73;;;;;;;18.85;55.29;98735.75;5073011;28;20214;-78
2023/05/26 05:51:42;;;;;;;9.87;6.10;;;;;;;18.96;55.11;98737.41;5073533;28;20661;-76
2023/05/26 05:54:09;;;;;;;10.73;6.77;;;;;;;18.92;55.56;98744.03;5073669;28;20211;-76
2023/05/26 05:56:35;;;;;;;9.00;5.80;;;;;;;18.91;55.94;98745.03;5073335;28;20242;-76
2023/05/26 05:59:02;;;;;;;8.80;6.37;;;;;;;18.85;55.24;98735.75;5072965;28;20235;-76
2023/05/26 06:01:30;;;;;;;8.00;6.67;;;;;;;18.72;55.42;98739.69;5072825;28;20207;-76
2023/05/26 06:03:56;;;;;;;13.07;6.60;;;;;;;18.46;55.75;98750.09;5073578;28;20215;-75
2023/05/26 06:06:23;;;;;;;8.00;6.17;;;;;;;18.52;56.44;98754.91;5073386;28;20214;-75
2023/05/26 06:08:49;;;;;;;11.37;6.33;;;;;;;18.60;56.45;98752.34;5073289;28;20231;-76
2023/05/26 06:11:16;;;;;;;7.97;6.37;;;;;;;18.70;54.97;98745.19;5072749;28;20284;-75
2023/05/26 06:13:42;;;;;;;13.67;6.73;;;;;;;18.86;55.05;98741.91;5073044;28;20204;-76
2023/05/26 06:16:09;;;;;;;9.97;6.37;;;;;;;18.77;55.13;98745.47;5073505;28;20207;-76
2023/05/26 06:18:37;;;;;;;10.80;6.50;;;;;;;18.90;55.21;98760.25;5072969;28;20231;-76
2023/05/26 06:21:03;;;;;;;7.70;6.17;;;;;;;19.00;54.83;98752.19;5072210;28;20306;-76
2023/05/26 06:23:30;;;;;;;10.93;6.70;;;;;;;18.98;55.31;98757.72;5073051;28;20214;-74
2023/05/26 06:25:57;;;;;;;11.20;6.20;;;;;;;18.91;55.66;98761.91;5072704;28;20210;-74
2023/05/26 06:28:23;;;;;;;9.40;6.13;;;;;;;19.12;54.92;98748.34;5072737;28;20243;-74
2023/05/26 06:30:50;;;;;;;12.13;6.40;;;;;;;19.07;54.53;98750.66;5072149;28;20203;-74
2023/05/26 06:33:16;;;;;;;8.30;6.03;;;;;;;18.96;54.92;98759.66;5072639;28;20211;-77
2023/05/26 06:35:44;;;;;;;9.47;6.00;;;;;;;19.23;54.99;98757.13;5072685;28;20686;-74
2023/05/26 06:38:10;;;;;;;11.03;7.10;;;;;;;19.10;53.84;98740.50;5072629;28;20226;-73
2023/05/26 06:40:37;;;;;;;9.67;6.87;;;;;;;18.56;54.58;98745.63;5071606;28;20227;-74
2023/05/26 06:43:03;;;;;;;11.17;6.50;;;;;;;18.93;54.32;98743.91;5067854;28;20211;-74
2023/05/26 06:45:30;;;;;;;11.47;6.60;;;;;;;19.22;53.48;98744.72;5072604;28;20215;-74
2023/05/26 06:47:56;;;;;;;10.03;6.70;;;;;;;19.55;52.91;98741.50;5071898;28;20737;-74
2023/05/26 06:50:23;;;;;;;8.53;6.73;;;;;;;19.43;53.23;98731.94;5070799;28;20214;-74
2023/05/26 06:52:51;;;;;;;9.13;6.60;;;;;;;19.11;54.31;98758.25;5072216;28;20214;-74
2023/05/26 06:55:19;;;;;;;9.57;6.93;;;;;;;18.94;55.46;98763.47;5072200;28;20208;-74
2023/05/26 06:57:45;;;;;;;8.67;6.47;;;;;;;18.73;56.15;98769.00;5072120;28;20372;-76
2023/05/26 07:00:13;;;;;;;8.73;6.87;;;;;;;18.20;56.48;98767.66;5070642;28;20251;-74
2023/05/26 07:02:40;;;;;;;11.23;7.03;;;;;;;17.60;57.38;98780.25;5072433;28;20211;-73
2023/05/26 07:05:08;;;;;;;10.07;6.70;;;;;;;17.35;58.93;98786.00;5071770;28;20266;-74
2023/05/26 07:07:34;;;;;;;12.97;6.67;;;;;;;17.21;59.80;98800.56;5072028;28;20231;-74
2023/05/26 07:10:02;;;;;;;11.97;6.97;;;;;;;17.29;60.73;98800.75;5071236;28;20214;-74
2023/05/26 07:12:29;;;;;;;8.17;6.10;;;;;;;17.11;61.17;98799.66;5072092;28;20215;-74
2023/05/26 07:14:55;;;;;;;11.03;6.63;;;;;;;17.06;61.79;98804.53;5072126;28;20683;-74
2023/05/26 07:17:22;;;;;;;11.80;6.30;;;;;;;17.11;63.84;98815.66;5072002;28;20235;-75
2023/05/26 07:19:48;;;;;;;9.57;6.80;;;;;;;17.20;63.43;98809.53;5071138;28;20242;-75
2023/05/26 07:22:15;;;;;;;10.80;6.40;;;;;;;17.31;63.96;98825.50;5071826;28;20207;-75
2023/05/26 07:24:41;;;;;;;12.47;6.63;;;;;;;17.42;63.46;98814.78;5071702;28;20219;-75
2023/05/26 07:27:09;;;;;;;9.50;6.40;;;;;;;17.51;62.65;98808.66;5071680;28;20227;-74
2023/05/26 07:29:38;;;;;;;9.07;6.50;;;;;;;17.70;62.98;98819.44;5071126;28;20218;-75
2023/05/26 07:32:05;;;;;;;11.57;6.57;;;;;;;17.78;62.84;98816.94;5071737;28;20207;-74
2023/05/26 07:34:31;;;;;;;10.73;6.23;;;;;;;17.79;63.48;98829.31;5071675;28;20215;-75
2023/05/26 07:36:58;;;;;;;9.13;6.20;;;;;;;17.84;62.90;98819.06;5071364;28;20203;-75
2023/05/26 07:39:24;;;;;;;8.10;6.27;;;;;;;17.94;63.29;98827.13;5071101;28;20238;-74
2023/05/26 07:41:51;;;;;;;10.67;5.83;;;;;;;17.99;62.30;98820.38;5071650;28;20207;-74
2023/05/26 07:44:19;;;;;;;11.93;7.43;;;;;;;17.91;59.80;98795.31;5071474;28;20207;-74
2023/05/26 07:46:45;;;;;;;10.53;6.63;;;;;;;17.90;59.56;98805.16;5071388;28;20211;-74
2023/05/26 07:49:11;;;;;;;13.20;7.17;;;;;;;18.04;60.98;98820.81;5070673;28;20211;-74
2023/05/26 07:51:38;;;;;;;10.70;7.20;;;;;;;17.93;59.63;98804.88;5071365;28;20219;-74
2023/05/26 07:54:05;;;;;;;9.23;6.50;;;;;;;17.99;59.88;98808.84;5070583;28;20646;-74
2023/05/26 07:56:31;;;;;;;9.83;6.53;;;;;;;18.11;58.64;98794.41;5071271;28;20214;-74
2023/05/26 07:58:58;;;;;;;10.60;6.83;;;;;;;18.09;58.75;98789.16;5071137;28;20266;-74
2023/05/26 08:01:26;;;;;;;10.47;6.60;;;;;;;18.14;58.30;98783.41;5070600;28;20227;-74
2023/05/26 08:03:52;;;;;;;10.27;6.80;;;;;;;18.13;59.99;98800.44;5071213;28;20226;-74
2023/05/26 08:06:19;;;;;;;12.07;7.30;;;;;;;18.22;60.62;98813.00;5071461;28;20667;-74
2023/05/26 08:08:45;;;;;;;10.83;7.37;;;;;;;18.27;59.78;98808.94;5071070;28;20235;-74
2023/05/26 08:11:12;;;;;;;10.30;6.67;;;;;;;18.24;60.06;98803.84;5070548;28;20207;-74
2023/05/26 08:13:38;;;;;;;10.87;6.50;;;;;;;18.32;58.65;98796.03;5071189;28;20203;-73
2023/05/26 08:16:06;;;;;;;8.50;6.20;;;;;;;18.26;57.43;98784.97;5071033;28;20230;-74
2023/05/26 08:18:34;;;;;;;12.00;7.37;;;;;;;18.21;57.79;98785.41;5071140;28;20231;-74
2023/05/26 08:21:00;;;;;;;11.17;6.90;;;;;;;18.27;58.34;98792.88;5070210;28;20227;-74
2023/05/26 08:23:27;;;;;;;12.03;7.47;;;;;;;18.30;59.04;98797.94;5071108;28;20590;-75
2023/05/26 08:25:53;;;;;;;10.03;7.00;;;;;;;18.29;60.42;98812.31;5071220;28;20208;-75
2023/05/26 08:28:19;;;;;;;9.40;6.83;;;;;;;18.49;57.92;98786.47;5070947;28;20242;-75
2023/05/26 08:30:46;;;;;;;8.63;6.20;;;;;;;18.46;57.76;98784.91;5070224;28;20203;-75
2023/05/26 08:33:13;;;;;;;10.43;7.13;;;;;;;18.76;59.51;98800.00;5070872;28;20211;-75
2023/05/26 08:35:40;;;;;;;10.90;6.70;;;;;;;18.78;62.10;98814.94;5071098;28;20208;-75
2023/05/26 08:38:07;;;;;;;8.13;6.80;;;;;;;18.92;62.28;98829.75;5070721;28;20265;-75
2023/05/26 08:40:34;;;;;;;9.57;6.60;;;;;;;19.11;62.21;98827.91;5070303;28;20241;-77
2023/05/26 08:43:06;;;;;;;11.53;7.47;;;;;;;19.27;56.95;98779.94;5070983;28;20211;-75
2023/05/26 08:45:33;;;;;;;9.73;6.60;;;;;;;19.08;56.39;98773.78;5070867;28;20277;-75
2023/05/26 08:48:02;;;;;;;11.00;7.03;;;;;;;19.03;58.87;98798.28;5070644;28;20710;-75
2023/05/26 08:50:30;;;;;;;11.73;6.57;;;;;;;19.09;59.95;98800.41;5070266;28;20253;-74
2023/05/26 08:53:00;;;;;;;9.63;6.43;;;;;;;19.29;59.35;98798.56;5070920;28;20204;-75
2023/05/26 08:55:27;;;;;;;12.47;7.13;;;;;;;19.29;57.91;98785.19;5070704;28;20638;-75
2023/05/26 08:57:55;;;;;;;13.40;6.87;;;;;;;19.35;55.98;98768.50;5070772;28;20246;-75
2023/05/26 09:00:22;;;;;;;12.03;6.33;;;;;;;19.33;57.49;98790.09;5069776;28;20260;-75
2023/05/26 09:02:49;;;;;;;12.47;7.30;;;;;;;19.41;56.21;98774.16;5070867;28;20705;-75
2023/05/26 09:05:15;;;;;;;9.40;6.37;;;;;;;19.42;56.87;98780.34;5070920;28;20579;-75
2023/05/26 09:07:42;;;;;;;9.83;6.50;;;;;;;19.36;56.75;98776.41;5074457;28;20234;-76
2023/05/26 09:10:24;;;;;;;10.40;6.70;;;;;;;19.45;59.73;98802.34;5073562;28;20207;-77
2023/05/26 09:13:01;;;;;;;9.30;6.00;;;;;;;19.58;59.71;98800.19;5074229;28;20199;-77
2023/05/26 09:15:27;;;;;;;9.43;6.57;;;;;;;19.75;60.36;98815.53;5074426;28;20286;-77
2023/05/26 09:17:54;;;;;;;8.00;6.07;;;;;;;19.84;56.20;98777.09;5074227;28;20228;-76
2023/05/26 09:20:21;;;;;;;8.70;5.83;;;;;;;19.96;58.13;98799.22;5073314;28;20657;-77
2023/05/26 09:22:47;;;;;;;9.00;6.17;;;;;;;19.94;57.05;98793.97;5074140;28;20264;-76
2023/05/26 09:25:17;;;;;;;11.50;6.73;;;;;;;20.04;55.86;98784.06;5073884;28;20211;-77
2023/05/26 09:27:47;;;;;;;10.17;6.77;;;;;;;20.18;55.91;98785.44;5088581;22;20769;-76
2023/05/26 09:30:14;;;;;;;9.03;6.33;;;;;;;20.17;58.87;98815.97;5075045;28;20223;-77
2023/05/26 09:32:40;;;;;;;8.63;6.30;;;;;;;20.21;60.20;98818.19;5075779;28;20211;-77
2023/05/26 09:35:08;;;;;;;9.37;6.27;;;;;;;20.35;57.97;98806.94;5075657;28;20215;-77
2023/05/26 09:37:34;;;;;;;11.57;6.47;;;;;;;20.39;54.57;98775.25;5075303;28;20239;-77
2023/05/26 09:40:08;;;;;;;9.30;6.47;;;;;;;20.38;54.87;98778.94;5073965;28;20393;-77
2023/05/26 09:42:37;;;;;;;10.57;7.37;;;;;;;20.56;55.60;98794.09;5074018;28;20203;-77
2023/05/26 09:45:05;;;;;;;9.23;6.87;;;;;;;20.51;55.14;98776.72;5073957;28;20211;-77
2023/05/26 09:47:33;;;;;;;12.10;7.03;;;;;;;20.57;53.99;98773.44;5073782;28;20250;-76
2023/05/26 09:50:03;;;;;;;13.27;7.63;;;;;;;20.61;55.24;98790.94;5073209;28;20218;-76
2023/05/26 09:52:31;;;;;;;9.87;6.40;;;;;;;20.61;54.15;98775.66;5074114;28;20211;-77
2023/05/26 09:54:57;;;;;;;12.87;6.57;;;;;;;20.72;54.51;98788.03;5073417;28;20226;-77
2023/05/26 09:57:26;;;;;;;10.53;7.07;;;;;;;20.85;54.36;98783.13;5073359;28;20212;-77
2023/05/26 09:59:56;;;;;;;12.17;7.10;;;;;;;20.77;53.75;98778.50;5072947;28;20207;-77
2023/05/26 10:02:26;;;;;;;13.37;7.50;;;;;;;20.92;52.67;98762.72;5073441;28;20210;-76
2023/05/26 10:04:54;;;;;;;10.50;6.70;;;;;;;20.77;53.14;98764.22;5073509;28;20211;-76
2023/05/26 10:07:22;;;;;;;10.93;6.57;;;;;;;20.89;55.28;98801.50;5073537;28;20207;-76
2023/05/26 10:09:52;;;;;;;11.70;7.17;;;;;;;20.79;55.72;98805.22;5072752;28;20215;-76
2023/05/26 10:12:23;;;;;;;13.60;6.50;;;;;;;20.72;55.61;98788.88;5073413;28;20257;-76
2023/05/26 10:14:51;;;;;;;11.97;6.93;;;;;;;20.81;53.06;98760.22;5073489;28;20211;-76
2023/05/26 10:17:17;;;;;;;8.20;6.33;;;;;;;20.75;52.00;98745.59;5072317;28;20434;-76
2023/05/26 10:19:46;;;;;;;10.20;6.10;;;;;;;20.90;51.94;98754.81;5072573;28;20261;-76
2023/05/26 10:22:19;;;;;;;11.63;6.47;;;;;;;20.95;51.86;98749.81;5073116;28;20306;-76
2023/05/26 10:24:54;;;;;;;10.47;6.80;;;;;;;21.01;51.96;98749.19;5073196;28;20207;-76
2023/05/26 10:27:26;;;;;;;8.10;6.07;;;;;;;21.12;51.82;98754.31;5073026;28;20215;-76
2023/05/26 10:30:00;;;;;;;9.47;6.23;;;;;;;21.12;52.31;98743.56;5072206;28;20208;-76
2023/05/26 10:32:42;;;;;;;11.90;5.87;;;;;;;21.15;52.30;98753.16;5073327;28;20261;-76
2023/05/26 10:35:22;;;;;;;10.10;6.10;;;;;;;21.25;51.99;98746.69;5073119;28;20211;-76
2023/05/26 10:37:55;;;;;;;8.80;6.00;;;;;;;21.36;51.59;98746.41;5073440;28;20594;-76
2023/05/26 10:40:30;;;;;;;8.37;6.30;;;;;;;21.43;53.90;98771.69;5072387;28;20227;-76
2023/05/26 10:43:01;;;;;;;8.23;6.10;;;;;;;21.40;53.03;98766.59;5072990;28;20208;-76
2023/05/26 10:45:32;;;;;;;7.70;6.00;;;;;;;21.37;52.11;98758.88;5072567;28;20204;-76
2023/05/26 10:47:59;;;;;;;7.77;5.83;;;;;;;21.24;51.61;98744.13;5072655;28;20236;-76
2023/05/26 10:50:47;;;;;;;9.40;6.23;;;;;;;21.19;50.87;98733.88;5072216;28;20337;-76
2023/05/26 10:53:19;;;;;;;13.63;6.10;;;;;;;21.18;51.21;98734.00;5072605;28;20250;-76
2023/05/26 10:55:55;;;;;;;9.27;6.10;;;;;;;21.32;51.19;98734.28;5072730;28;20214;-76
2023/05/26 10:58:35;;;;;;;9.53;6.20;;;;;;;21.57;54.76;98787.22;5072604;28;20425;-77
2023/05/26 11:01:03;;;;;;;7.67;5.70;;;;;;;21.68;53.55;98767.31;5071697;28;20226;-77
2023/05/26 11:03:37;;;;;;;8.00;5.60;;;;;;;21.61;50.42;98721.34;5072011;28;20214;-76
2023/05/26 11:06:06;;;;;;;9.60;5.53;;;;;;;21.55;50.44;98724.69;5072147;28;20208;-76
2023/05/26 11:08:37;;;;;;;8.60;5.93;;;;;;;21.67;50.55;98728.81;5072018;28;20234;-77
2023/05/26 11:11:05;;;;;;;7.83;6.03;;;;;;;21.83;51.88;98749.56;5071531;28;20617;-76
2023/05/26 11:13:46;;;;;;;9.27;5.60;;;;;;;21.93;53.80;98767.28;5071836;28;20206;-77
2023/05/26 11:16:22;;;;;;;8.67;5.90;;;;;;;21.99;52.95;98760.38;5072252;28;20550;-77
2023/05/26 11:18:51;;;;;;;9.53;6.10;;;;;;;22.03;51.42;98749.16;5071834;28;20724;-77
2023/05/26 11:21:24;;;;;;;7.67;5.83;;;;;;;21.89;50.91;98727.38;5071360;28;20872;-76
2023/05/26 11:23:53;;;;;;;7.77;5.60;;;;;;;21.90;51.06;98729.94;5071575;28;20692;-76
2023/05/26 11:26:21;;;;;;;7.60;5.33;;;;;;;21.96;51.10;98729.28;5071827;28;20214;-76
2023/05/26 11:28:47;;;;;;;8.97;6.10;;;;;;;21.96;49.93;98721.22;5071415;28;20271;-76
2023/05/26 11:31:15;;;;;;;9.67;5.83;;;;;;;21.94;50.69;98719.69;5070850;28;20214;-77
2023/05/26 11:33:43;;;;;;;8.03;5.50;;;;;;;22.04;49.91;98715.84;5071848;28;20226;-76
2023/05/26 11:36:11;;;;;;;10.60;5.87;;;;;;;22.20;50.87;98734.72;5071877;28;20658;-76